Time;durP1;ratioP1;P1;durP2;ratioP2;P2;SDS_P1;SDS_P2;PMS_P1;PMS_P2;Temp;Humidity;BMP_temperature;BMP_pressure;BME280_temperature;BME280_humidity;BME280_pressure;Samples;Min_cycle;Max_cycle;Signal;HPM_P1;HPM_P2
2022/09/13 00:00:18;;;;;;;23.13;17.50;;;24.40;98.50;;;;;;5104675;28;20458;-72
2022/09/13 00:02:49;;;;;;;20.80;15.90;;;24.30;98.50;;;;;;5111006;28;20509;-73
2022/09/13 00:05:20;;;;;;;20.73;17.43;;;24.30;98.80;;;;;;5105018;27;20528;-73
2022/09/13 00:07:50;;;;;;;19.73;16.13;;;24.30;98.70;;;;;;5104435;28;20488;-75
2022/09/13 00:10:21;;;;;;;19.30;16.10;;;24.20;98.70;;;;;;5104160;28;20756;-72
2022/09/13 00:12:53;;;;;;;19.57;15.47;;;24.20;98.90;;;;;;5105016;28;20472;-73
2022/09/13 00:15:25;;;;;;;20.23;15.57;;;24.00;98.50;;;;;;5124629;28;20481;-75
2022/09/13 00:17:56;;;;;;;18.77;15.53;;;24.00;98.60;;;;;;5124092;28;20518;-73
2022/09/13 00:20:27;;;;;;;18.37;15.33;;;24.00;99.10;;;;;;5105282;28;20459;-73
2022/09/13 00:22:58;;;;;;;17.30;15.53;;;24.00;99.10;;;;;;5105952;28;20450;-72
2022/09/13 00:25:29;;;;;;;21.03;15.13;;;24.00;99.70;;;;;;5124243;28;20994;-72
2022/09/13 00:27:59;;;;;;;18.63;14.60;;;24.10;99.80;;;;;;5114671;28;20519;-73
2022/09/13 00:30:33;;;;;;;23.37;17.50;;;24.10;99.20;;;;;;5102869;28;20462;-72
2022/09/13 00:33:03;;;;;;;18.57;16.50;;;24.20;99.40;;;;;;5102651;28;20515;-71
2022/09/13 00:35:34;;;;;;;21.27;15.63;;;24.40;98.20;;;;;;5124359;28;20503;-69
2022/09/13 00:38:05;;;;;;;20.00;16.43;;;24.30;98.00;;;;;;5105680;28;20523;-69
2022/09/13 00:40:40;;;;;;;18.30;14.00;;;24.20;99.30;;;;;;5105541;28;20520;-67
2022/09/13 00:43:18;;;;;;;18.17;15.00;;;24.10;99.30;;;;;;5103421;28;20799;-67
2022/09/13 00:45:50;;;;;;;22.67;15.17;;;24.00;99.90;;;;;;5102973;28;20926;-75
2022/09/13 00:48:24;;;;;;;17.33;15.53;;;24.10;99.70;;;;;;5108342;28;20459;-71
2022/09/13 00:50:57;;;;;;;18.87;15.60;;;24.20;98.80;;;;;;5107393;28;20810;-69
2022/09/13 00:53:29;;;;;;;17.17;14.83;;;24.30;99.20;;;;;;5101935;28;20498;-66
2022/09/13 00:56:04;;;;;;;18.97;15.63;;;24.20;98.90;;;;;;5102926;28;20521;-67
2022/09/13 00:58:38;;;;;;;15.83;14.00;;;24.20;99.30;;;;;;5102342;28;20483;-70
2022/09/13 01:01:14;;;;;;;17.03;14.67;;;24.20;99.30;;;;;;5109886;28;20532;-68
2022/09/13 01:03:47;;;;;;;21.60;15.73;;;24.20;98.70;;;;;;5102999;28;20957;-70
2022/09/13 01:06:28;;;;;;;15.30;13.57;;;24.20;99.50;;;;;;5103900;28;20487;-68
2022/09/13 01:09:02;;;;;;;18.77;15.57;;;24.10;99.70;;;;;;5105047;28;20887;-68
2022/09/13 01:11:40;;;;;;;17.87;13.93;;;24.00;99.90;;;;;;5102578;28;20450;-69
2022/09/13 01:14:11;;;;;;;16.80;13.97;;;24.10;99.90;;;;;;5104920;28;20462;-68
2022/09/13 01:16:43;;;;;;;19.50;15.03;;;24.00;99.90;;;;;;5104943;28;20455;-69
2022/09/13 01:19:17;;;;;;;17.10;14.90;;;24.00;99.50;;;;;;5098737;28;20478;-73
2022/09/13 01:22:16;;;;;;;16.90;15.10;;;23.90;99.70;;;;;;5099047;28;20447;-70
2022/09/13 01:25:23;;;;;;;19.30;15.80;;;23.90;99.90;;;;;;5083092;28;20765;-73
2022/09/13 01:28:13;;;;;;;17.80;14.50;;;23.80;99.60;;;;;;5098248;28;20478;-71
2022/09/13 01:30:52;;;;;;;17.23;13.83;;;23.60;99.90;;;;;;5089560;28;20451;-72
2022/09/13 01:33:42;;;;;;;16.03;13.57;;;23.50;99.90;;;;;;5106175;28;20438;-76
2022/09/13 01:36:33;;;;;;;17.60;14.63;;;23.50;99.90;;;;;;5101573;28;20619;-75
2022/09/13 01:39:06;;;;;;;18.97;14.60;;;23.40;99.90;;;;;;5094555;28;20537;-70
2022/09/13 01:41:58;;;;;;;19.90;15.37;;;23.30;99.90;;;;;;5100696;28;20470;-71
2022/09/13 01:44:47;;;;;;;17.83;14.87;;;23.10;99.90;;;;;;5102938;28;20467;-71
2022/09/13 01:47:28;;;;;;;18.10;14.53;;;23.10;99.90;;;;;;5106116;28;20572;-71
2022/09/13 01:50:10;;;;;;;16.90;13.90;;;23.00;99.90;;;;;;5116122;28;20462;-71
2022/09/13 01:52:49;;;;;;;18.70;14.73;;;22.90;99.90;;;;;;5102635;28;20557;-71
2022/09/13 01:55:29;;;;;;;16.33;13.07;;;22.90;99.90;;;;;;5104625;28;20612;-71
2022/09/13 01:58:08;;;;;;;16.27;14.47;;;22.80;99.90;;;;;;5111179;28;20454;-72
2022/09/13 02:00:46;;;;;;;17.53;14.40;;;22.80;99.90;;;;;;5097630;28;20462;-71
2022/09/13 02:03:21;;;;;;;19.40;15.30;;;22.70;99.90;;;;;;5104671;28;20453;-70
2022/09/13 02:05:58;;;;;;;16.90;15.10;;;22.60;99.90;;;;;;5104787;28;20462;-70
2022/09/13 02:08:36;;;;;;;16.33;14.07;;;22.50;99.90;;;;;;5104160;28;20462;-68
2022/09/13 02:11:11;;;;;;;16.63;13.70;;;22.40;99.90;;;;;;5107284;28;20508;-69
2022/09/13 02:13:47;;;;;;;18.20;14.67;;;22.40;99.90;;;;;;5103123;28;20611;-71
2022/09/13 02:16:27;;;;;;;15.17;13.57;;;22.30;99.90;;;;;;5105131;28;20503;-71
2022/09/13 02:19:02;;;;;;;17.10;14.37;;;22.30;99.90;;;;;;5101814;28;20557;-73
2022/09/13 02:21:39;;;;;;;17.27;14.87;;;22.20;99.90;;;;;;5099022;28;21016;-72
2022/09/13 02:24:14;;;;;;;15.80;12.87;;;22.20;99.90;;;;;;5101244;28;20470;-70
2022/09/13 02:26:48;;;;;;;17.30;14.87;;;22.20;99.90;;;;;;5103522;28;20523;-71
2022/09/13 02:29:23;;;;;;;18.80;11.97;;;22.20;99.90;;;;;;5105431;28;20469;-71
2022/09/13 02:31:59;;;;;;;17.17;14.40;;;22.10;99.90;;;;;;5116462;28;20510;-71
2022/09/13 02:34:39;;;;;;;17.80;13.60;;;22.20;99.90;;;;;;5111960;28;20490;-71
2022/09/13 02:37:12;;;;;;;14.47;11.47;;;22.30;99.90;;;;;;5106920;28;20466;-67
2022/09/13 02:39:47;;;;;;;12.70;10.67;;;22.20;99.90;;;;;;5109253;28;20451;-67
2022/09/13 02:42:23;;;;;;;14.30;11.30;;;22.20;99.90;;;;;;5104468;28;20462;-69
2022/09/13 02:44:56;;;;;;;12.87;10.97;;;22.10;99.90;;;;;;5102862;28;20484;-68
2022/09/13 02:47:39;;;;;;;14.17;10.80;;;22.00;99.90;;;;;;5100953;28;20554;-70
2022/09/13 02:50:26;;;;;;;12.80;10.90;;;21.90;99.90;;;;;;5108155;28;20455;-70
2022/09/13 02:53:06;;;;;;;13.37;10.83;;;21.80;99.90;;;;;;5102774;28;20429;-70
2022/09/13 02:55:44;;;;;;;14.70;10.10;;;21.80;99.90;;;;;;5106049;28;20676;-69
2022/09/13 02:58:20;;;;;;;14.13;11.17;;;21.70;99.90;;;;;;5105552;28;20499;-70
2022/09/13 03:00:56;;;;;;;13.23;10.07;;;21.60;99.90;;;;;;5107428;28;20462;-69
2022/09/13 03:03:27;;;;;;;13.60;11.33;;;21.40;99.90;;;;;;5107869;28;20450;-70
2022/09/13 03:06:00;;;;;;;14.20;10.80;;;21.30;99.90;;;;;;5104002;28;20458;-70
2022/09/13 03:08:31;;;;;;;14.97;10.30;;;21.20;99.90;;;;;;5107377;28;20570;-69
2022/09/13 03:11:11;;;;;;;13.00;10.07;;;21.00;99.90;;;;;;5105875;28;20527;-69
2022/09/13 03:14:08;;;;;;;11.97;10.47;;;20.90;99.90;;;;;;5107864;28;20440;-70
2022/09/13 03:16:53;;;;;;;14.30;11.17;;;20.80;99.90;;;;;;5104010;28;20458;-68
2022/09/13 03:19:51;;;;;;;13.17;11.23;;;20.60;99.90;;;;;;5106348;28;20470;-72
2022/09/13 03:22:48;;;;;;;13.23;11.57;;;20.50;99.90;;;;;;5105506;28;20459;-71
2022/09/13 03:25:26;;;;;;;12.27;9.73;;;20.40;99.90;;;;;;5104875;28;20467;-70
2022/09/13 03:28:09;;;;;;;12.83;9.80;;;20.30;99.90;;;;;;5102716;28;20513;-72
2022/09/13 03:30:45;;;;;;;11.43;10.20;;;20.20;99.90;;;;;;5104665;28;20455;-70
2022/09/13 03:33:25;;;;;;;14.30;9.90;;;20.10;99.90;;;;;;5107944;28;20472;-73
2022/09/13 03:36:03;;;;;;;12.80;9.80;;;20.00;99.90;;;;;;5105518;28;20473;-71
2022/09/13 03:38:41;;;;;;;11.47;9.47;;;20.00;99.90;;;;;;5117798;28;20445;-71
2022/09/13 03:41:15;;;;;;;10.97;9.87;;;19.90;99.90;;;;;;5105256;28;20527;-70
2022/09/13 03:43:50;;;;;;;11.37;9.77;;;19.90;99.90;;;;;;5107873;28;20946;-69
2022/09/13 03:46:28;;;;;;;16.60;9.27;;;19.80;99.90;;;;;;5095267;28;20451;-67
2022/09/13 03:49:01;;;;;;;12.27;8.93;;;19.80;99.90;;;;;;5106045;28;20460;-68
2022/09/13 03:51:33;;;;;;;12.33;9.47;;;19.70;99.90;;;;;;5104587;28;20454;-69
2022/09/13 03:54:09;;;;;;;11.83;9.27;;;19.70;99.90;;;;;;5105025;28;20455;-70
2022/09/13 03:56:39;;;;;;;11.80;8.63;;;19.60;99.90;;;;;;5111415;28;20465;-69
2022/09/13 03:59:10;;;;;;;12.40;9.20;;;19.60;99.90;;;;;;5108253;28;20445;-71
2022/09/13 04:01:42;;;;;;;11.00;8.50;;;19.60;99.90;;;;;;5113314;28;20983;-68
2022/09/13 04:04:15;;;;;;;10.67;9.00;;;19.50;99.90;;;;;;5112499;28;20486;-67
2022/09/13 04:06:46;;;;;;;11.10;8.40;;;19.50;99.90;;;;;;5102474;28;20487;-67
2022/09/13 04:09:19;;;;;;;11.73;9.27;;;19.50;99.90;;;;;;5104443;28;20481;-67
2022/09/13 04:11:49;;;;;;;11.87;9.20;;;19.50;99.90;;;;;;5107075;28;20428;-68
2022/09/13 04:14:21;;;;;;;10.20;8.30;;;19.50;99.90;;;;;;5114640;28;20506;-69
2022/09/13 04:16:52;;;;;;;8.90;7.70;;;19.40;99.90;;;;;;5103578;28;20451;-68
2022/09/13 04:19:23;;;;;;;10.33;7.73;;;19.40;99.90;;;;;;5107862;28;20458;-68
2022/09/13 04:21:56;;;;;;;11.93;9.13;;;19.40;99.90;;;;;;5107202;28;20435;-68
2022/09/13 04:24:30;;;;;;;11.30;7.50;;;19.30;99.90;;;;;;5103626;28;20441;-66
2022/09/13 04:27:02;;;;;;;12.83;9.63;;;19.30;99.90;;;;;;5108006;28;20448;-68
2022/09/13 04:29:33;;;;;;;10.23;9.00;;;19.30;99.90;;;;;;5102647;28;20503;-68
2022/09/13 04:32:04;;;;;;;9.47;8.20;;;19.10;99.90;;;;;;5103585;28;20463;-67
2022/09/13 04:34:35;;;;;;;9.73;7.50;;;19.00;99.90;;;;;;5120842;28;21297;-68
2022/09/13 04:37:06;;;;;;;10.33;8.30;;;19.00;99.90;;;;;;5104599;28;20447;-66
2022/09/13 04:39:39;;;;;;;8.30;7.47;;;19.00;99.90;;;;;;5104319;28;20463;-69
2022/09/13 04:42:10;;;;;;;9.83;7.93;;;19.00;99.90;;;;;;5105900;28;20555;-68
2022/09/13 04:44:41;;;;;;;11.17;8.33;;;18.90;99.90;;;;;;5107728;28;20466;-69
2022/09/13 04:47:12;;;;;;;9.07;7.47;;;18.80;99.90;;;;;;5112043;28;20449;-68
2022/09/13 04:49:43;;;;;;;9.10;7.10;;;18.90;99.90;;;;;;5114540;28;20485;-67
2022/09/13 04:52:14;;;;;;;10.93;7.73;;;18.90;99.90;;;;;;5108318;28;20963;-68
2022/09/13 04:54:46;;;;;;;14.80;7.40;;;19.00;99.90;;;;;;5105099;28;20732;-66
2022/09/13 04:57:17;;;;;;;11.80;8.37;;;18.90;99.90;;;;;;5104967;28;20420;-68
2022/09/13 04:59:48;;;;;;;8.03;6.87;;;19.00;99.90;;;;;;5108006;28;20546;-68
2022/09/13 05:02:18;;;;;;;10.50;7.93;;;19.00;99.90;;;;;;5104738;28;20828;-69
2022/09/13 05:04:49;;;;;;;10.67;7.97;;;19.00;99.90;;;;;;5094859;28;20813;-68
2022/09/13 05:07:20;;;;;;;8.73;7.20;;;19.00;99.90;;;;;;5103287;28;20520;-69
2022/09/13 05:09:53;;;;;;;10.37;6.67;;;19.00;99.90;;;;;;5103618;28;20490;-69
2022/09/13 05:12:23;;;;;;;11.27;7.30;;;19.00;99.90;;;;;;5112405;28;20788;-68
2022/09/13 05:14:54;;;;;;;9.70;7.10;;;18.90;99.90;;;;;;5114350;28;20432;-69
2022/09/13 05:17:26;;;;;;;8.17;6.27;;;19.00;99.90;;;;;;5110408;28;20526;-68
2022/09/13 05:19:56;;;;;;;8.23;7.17;;;19.00;99.90;;;;;;5065712;28;20456;-69
2022/09/13 05:22:27;;;;;;;8.30;7.17;;;19.00;99.90;;;;;;5060231;28;20752;-68
2022/09/13 05:25:00;;;;;;;10.53;7.93;;;18.90;99.90;;;;;;5062495;28;20467;-68
2022/09/13 05:27:30;;;;;;;8.93;6.80;;;18.80;99.90;;;;;;5061334;28;20423;-69
2022/09/13 05:30:01;;;;;;;7.77;6.37;;;18.80;99.90;;;;;;5069294;28;20492;-70
2022/09/13 05:32:34;;;;;;;8.97;6.80;;;18.90;99.90;;;;;;5062249;28;20455;-70
2022/09/13 05:35:05;;;;;;;8.90;7.50;;;18.90;99.90;;;;;;5062365;28;20440;-69
2022/09/13 05:37:36;;;;;;;8.53;7.00;;;18.80;99.90;;;;;;5063599;28;20407;-70
2022/09/13 05:40:10;;;;;;;8.47;6.40;;;18.80;99.90;;;;;;5062807;28;20505;-69
2022/09/13 05:42:41;;;;;;;10.07;6.13;;;18.80;99.90;;;;;;5062490;28;20817;-69
2022/09/13 05:45:12;;;;;;;7.53;6.70;;;18.70;99.90;;;;;;5062648;28;20476;-69
2022/09/13 05:47:44;;;;;;;7.80;6.30;;;18.70;99.90;;;;;;5062521;28;20419;-69
2022/09/13 05:50:15;;;;;;;8.77;6.83;;;18.60;99.90;;;;;;5062090;28;20463;-68
2022/09/13 05:53:06;;;;;;;10.07;7.27;;;18.60;99.90;;;;;;5070723;28;20443;-67
2022/09/13 05:55:38;;;;;;;8.50;7.00;;;18.50;99.90;;;;;;5063585;28;20867;-70
2022/09/13 05:58:09;;;;;;;8.37;7.10;;;18.60;99.90;;;;;;5062505;28;20459;-70
2022/09/13 06:00:40;;;;;;;7.97;6.67;;;18.50;99.90;;;;;;5068900;28;20426;-69
2022/09/13 06:03:11;;;;;;;8.53;6.63;;;18.60;99.90;;;;;;5067907;28;20935;-69
2022/09/13 06:05:41;;;;;;;7.17;5.67;;;18.60;99.90;;;;;;5082124;28;20426;-69
2022/09/13 06:08:12;;;;;;;9.73;7.40;;;18.60;99.90;;;;;;5069239;28;20439;-69
2022/09/13 06:10:45;;;;;;;8.13;6.57;;;18.60;99.90;;;;;;5082367;28;20422;-69
2022/09/13 06:13:15;;;;;;;10.33;6.70;;;18.60;99.90;;;;;;5080286;28;21013;-68
2022/09/13 06:15:46;;;;;;;8.20;6.30;;;18.70;99.90;;;;;;5067252;28;20470;-68
2022/09/13 06:18:17;;;;;;;7.10;6.23;;;18.80;99.90;;;;;;5077994;28;20456;-69
2022/09/13 06:20:49;;;;;;;9.57;7.00;;;18.70;99.90;;;;;;5106354;28;20511;-70
2022/09/13 06:23:20;;;;;;;9.80;7.20;;;18.70;99.90;;;;;;5116574;28;20454;-70
2022/09/13 06:26:00;;;;;;;7.20;6.23;;;18.70;99.90;;;;;;5102680;28;20528;-69
2022/09/13 06:28:31;;;;;;;11.23;6.83;;;18.70;99.90;;;;;;5109205;28;20896;-70
2022/09/13 06:31:08;;;;;;;7.70;5.97;;;18.70;99.90;;;;;;5118548;28;20439;-70
2022/09/13 06:33:40;;;;;;;5.93;5.37;;;18.80;99.90;;;;;;5105958;28;20565;-69
2022/09/13 06:36:14;;;;;;;7.73;6.70;;;18.90;99.90;;;;;;5092529;28;20432;-69
2022/09/13 06:38:45;;;;;;;7.60;6.17;;;18.90;99.90;;;;;;5106007;28;20454;-69
2022/09/13 06:41:18;;;;;;;9.87;6.20;;;18.80;99.90;;;;;;5106252;28;20436;-71
2022/09/13 06:43:53;;;;;;;7.23;6.33;;;18.70;99.90;;;;;;5105226;28;20481;-71
2022/09/13 06:46:24;;;;;;;7.07;6.00;;;18.70;99.90;;;;;;5108409;28;20460;-69
2022/09/13 06:48:56;;;;;;;9.00;6.03;;;18.70;99.90;;;;;;5110800;28;20457;-70
2022/09/13 06:51:28;;;;;;;6.13;5.37;;;18.70;99.90;;;;;;5114402;28;20484;-69
2022/09/13 06:54:00;;;;;;;7.83;6.00;;;18.70;99.90;;;;;;5107092;28;20454;-70
2022/09/13 06:56:33;;;;;;;6.67;5.50;;;18.70;99.90;;;;;;5104768;28;20445;-70
2022/09/13 06:59:07;;;;;;;9.07;5.90;;;18.70;99.90;;;;;;5109944;28;20510;-70
2022/09/13 07:01:39;;;;;;;6.30;5.50;;;18.70;99.90;;;;;;5108043;28;20505;-70
2022/09/13 07:04:12;;;;;;;7.40;5.63;;;18.80;99.90;;;;;;5103484;28;20429;-69
2022/09/13 07:06:44;;;;;;;7.63;6.20;;;18.70;99.90;;;;;;5105471;28;20626;-70
2022/09/13 07:09:17;;;;;;;7.53;5.07;;;18.80;99.90;;;;;;5106510;28;20547;-69
2022/09/13 07:11:51;;;;;;;8.20;6.33;;;18.80;99.90;;;;;;5105590;28;20433;-69
2022/09/13 07:14:23;;;;;;;8.83;5.90;;;18.80;99.90;;;;;;5111413;28;20428;-70
2022/09/13 07:16:55;;;;;;;10.07;5.67;;;18.70;99.90;;;;;;5106232;28;20537;-69
2022/09/13 07:19:28;;;;;;;8.60;6.13;;;18.60;99.90;;;;;;5109641;28;20505;-69
2022/09/13 07:21:58;;;;;;;6.53;5.93;;;18.60;99.90;;;;;;5113909;28;20440;-69
2022/09/13 07:24:29;;;;;;;6.83;5.57;;;18.70;99.90;;;;;;5108495;28;20456;-69
2022/09/13 07:27:02;;;;;;;7.70;6.63;;;18.70;99.90;;;;;;5110555;28;20490;-71
2022/09/13 07:29:32;;;;;;;8.13;6.70;;;18.60;99.90;;;;;;5116968;28;20842;-69
2022/09/13 07:32:03;;;;;;;8.13;6.73;;;18.50;99.90;;;;;;5105148;28;20486;-70
2022/09/13 07:34:34;;;;;;;8.47;6.10;;;18.60;99.90;;;;;;5091490;28;20429;-70
2022/09/13 07:37:05;;;;;;;9.23;6.97;;;18.60;99.90;;;;;;5103902;28;20853;-69
2022/09/13 07:39:36;;;;;;;7.73;5.90;;;18.60;99.90;;;;;;5104553;28;20429;-70
2022/09/13 07:42:08;;;;;;;7.70;6.23;;;18.50;99.90;;;;;;5113837;28;20441;-70
2022/09/13 07:44:39;;;;;;;7.00;6.30;;;18.50;99.90;;;;;;5105406;28;20461;-70
2022/09/13 07:47:10;;;;;;;8.00;6.70;;;18.50;99.90;;;;;;5116587;28;20438;-70
2022/09/13 07:49:41;;;;;;;6.93;5.90;;;18.50;99.90;;;;;;5112320;28;20508;-70
2022/09/13 07:52:12;;;;;;;6.90;6.20;;;18.50;99.90;;;;;;5107361;28;20536;-70
2022/09/13 07:54:42;;;;;;;7.00;5.43;;;18.50;99.90;;;;;;5111133;28;20444;-70
2022/09/13 07:57:15;;;;;;;6.40;5.80;;;18.50;99.90;;;;;;5105355;28;20429;-70
2022/09/13 07:59:46;;;;;;;8.10;6.40;;;18.60;99.90;;;;;;5104307;28;20470;-69
2022/09/13 08:02:19;;;;;;;7.77;6.07;;;18.60;99.90;;;;;;5119159;28;20470;-69
2022/09/13 08:04:49;;;;;;;7.60;5.33;;;18.60;99.90;;;;;;5103596;28;20954;-70
2022/09/13 08:07:20;;;;;;;8.17;6.27;;;18.50;99.90;;;;;;5113288;28;20933;-70
2022/09/13 08:09:51;;;;;;;8.30;5.13;;;18.50;99.90;;;;;;5115815;28;20456;-70
2022/09/13 08:12:23;;;;;;;12.10;6.10;;;18.50;99.90;;;;;;5113831;28;20518;-70
2022/09/13 08:14:54;;;;;;;7.50;6.30;;;18.50;99.90;;;;;;5114951;28;20436;-70
2022/09/13 08:17:25;;;;;;;8.83;5.27;;;18.50;99.90;;;;;;5112552;28;20432;-69
2022/09/13 08:19:56;;;;;;;7.93;6.00;;;18.50;99.90;;;;;;5112387;28;20485;-70
2022/09/13 08:22:27;;;;;;;10.50;5.93;;;18.50;99.90;;;;;;5113206;28;20459;-69
2022/09/13 08:24:57;;;;;;;7.63;5.43;;;18.40;99.90;;;;;;5106134;28;20430;-69
2022/09/13 08:27:30;;;;;;;5.50;5.00;;;18.40;99.90;;;;;;5108699;28;20466;-69
2022/09/13 08:30:01;;;;;;;5.73;5.10;;;18.50;99.90;;;;;;5116663;28;20556;-69
2022/09/13 08:32:32;;;;;;;7.30;5.43;;;18.50;99.90;;;;;;5112860;28;20908;-69
2022/09/13 08:35:03;;;;;;;8.23;4.50;;;18.40;99.90;;;;;;5105229;27;20515;-68
2022/09/13 08:37:34;;;;;;;7.30;5.07;;;18.50;99.90;;;;;;5092645;28;20515;-69
2022/09/13 08:40:06;;;;;;;6.77;5.27;;;18.50;99.90;;;;;;5103634;28;20440;-71
2022/09/13 08:42:53;;;;;;;6.23;5.10;;;18.60;99.90;;;;;;5102881;28;20496;-70
2022/09/13 08:45:24;;;;;;;9.53;5.30;;;18.60;99.90;;;;;;5101711;28;20511;-70
2022/09/13 08:47:59;;;;;;;7.50;5.43;;;18.60;99.90;;;;;;5118157;28;20451;-70
2022/09/13 08:50:33;;;;;;;7.03;5.60;;;18.60;99.90;;;;;;5102886;28;20537;-70
2022/09/13 08:53:16;;;;;;;7.03;5.17;;;18.60;99.90;;;;;;5102195;28;20471;-70
2022/09/13 08:56:02;;;;;;;5.30;4.80;;;18.60;99.90;;;;;;5110656;28;20828;-69
2022/09/13 08:58:55;;;;;;;6.83;5.23;;;18.50;99.90;;;;;;5110661;28;20478;-69
2022/09/13 09:01:38;;;;;;;5.87;4.53;;;18.40;99.90;;;;;;5102671;28;20475;-69
2022/09/13 09:04:21;;;;;;;5.00;4.60;;;18.40;99.90;;;;;;5101627;28;20486;-70
2022/09/13 09:07:04;;;;;;;7.90;6.00;;;18.40;99.90;;;;;;5108843;28;20498;-69
2022/09/13 09:09:38;;;;;;;8.00;6.30;;;18.30;99.90;;;;;;5100676;28;20440;-69
2022/09/13 09:12:19;;;;;;;6.27;4.80;;;18.40;99.90;;;;;;5102730;28;20493;-69
2022/09/13 09:14:59;;;;;;;7.57;5.60;;;18.40;99.90;;;;;;5106355;28;21053;-69
2022/09/13 09:17:38;;;;;;;6.87;5.07;;;18.30;99.90;;;;;;5103929;28;20437;-69
2022/09/13 09:20:22;;;;;;;6.03;5.43;;;18.30;99.90;;;;;;5102673;28;20429;-69
2022/09/13 09:22:54;;;;;;;6.90;5.23;;;18.30;99.90;;;;;;5104123;28;20433;-70
2022/09/13 09:25:26;;;;;;;5.63;4.87;;;18.20;99.90;;;;;;5100645;28;20475;-70
2022/09/13 09:27:58;;;;;;;5.77;4.93;;;18.20;99.90;;;;;;5108991;28;20466;-69
2022/09/13 09:30:40;;;;;;;7.50;5.10;;;18.20;99.90;;;;;;5101375;28;20571;-68
2022/09/13 09:33:24;;;;;;;5.80;4.90;;;18.30;99.90;;;;;;5102201;28;20428;-70
2022/09/13 09:36:04;;;;;;;9.00;5.70;;;18.30;99.90;;;;;;5101139;28;20445;-70
2022/09/13 09:38:40;;;;;;;5.20;4.70;;;18.30;99.90;;;;;;5101675;28;20463;-69
2022/09/13 09:41:24;;;;;;;5.03;4.17;;;18.30;99.90;;;;;;5102666;28;20499;-70
2022/09/13 09:44:00;;;;;;;5.67;5.13;;;18.20;99.90;;;;;;5103953;28;20441;-70
2022/09/13 09:46:36;;;;;;;6.63;5.07;;;18.20;99.90;;;;;;5108509;28;20502;-69
2022/09/13 09:52:02;;;;;;;7.93;5.50;;;18.20;99.90;;;;;;5090771;28;20549;-69
2022/09/13 09:54:33;;;;;;;4.50;4.10;;;18.10;99.90;;;;;;5101887;28;20462;-69
2022/09/13 09:57:05;;;;;;;6.10;4.80;;;18.10;99.90;;;;;;5108686;28;20580;-69
2022/09/13 09:59:36;;;;;;;8.33;5.20;;;18.10;99.90;;;;;;5102958;28;20455;-69
2022/09/13 10:02:17;;;;;;;10.27;5.90;;;18.10;99.90;;;;;;5103776;28;20440;-69
2022/09/13 10:04:57;;;;;;;6.33;4.80;;;18.30;99.90;;;;;;5101819;28;20441;-69
2022/09/13 10:07:31;;;;;;;6.67;5.50;;;18.20;99.90;;;;;;5109274;28;20587;-69
2022/09/13 10:10:07;;;;;;;11.10;5.30;;;18.20;99.90;;;;;;5106783;28;20428;-68
2022/09/13 10:12:40;;;;;;;7.00;6.10;;;18.20;99.90;;;;;;5102516;28;20490;-69
2022/09/13 10:15:18;;;;;;;7.13;5.60;;;18.20;99.90;;;;;;5113272;28;20457;-69
2022/09/13 10:18:16;;;;;;;7.70;5.57;;;18.10;99.90;;;;;;5109857;28;20961;-69
2022/09/13 10:21:08;;;;;;;5.17;4.67;;;18.10;99.90;;;;;;5089009;28;20557;-70
2022/09/13 10:23:39;;;;;;;6.83;5.70;;;18.20;99.90;;;;;;5102276;28;20460;-68
2022/09/13 10:26:12;;;;;;;7.00;5.50;;;18.20;99.90;;;;;;5102110;28;20468;-70
2022/09/13 10:28:47;;;;;;;6.80;5.50;;;18.20;99.90;;;;;;5105088;28;20584;-70
2022/09/13 10:31:20;;;;;;;7.43;5.70;;;18.10;99.90;;;;;;5116977;28;20460;-69
2022/09/13 10:34:00;;;;;;;7.60;4.80;;;18.10;99.90;;;;;;5107931;28;20526;-69
2022/09/13 10:36:34;;;;;;;7.17;5.23;;;18.20;99.90;;;;;;5102025;28;20567;-70
2022/09/13 10:39:23;;;;;;;9.10;5.40;;;18.20;99.90;;;;;;5093600;28;20461;-69
2022/09/13 10:41:57;;;;;;;5.83;4.73;;;18.30;99.90;;;;;;5109094;28;20461;-70
2022/09/13 10:44:39;;;;;;;5.90;4.97;;;18.20;99.90;;;;;;5118578;28;20454;-69
2022/09/13 10:47:22;;;;;;;7.20;5.53;;;18.20;99.90;;;;;;5109086;28;20525;-70
2022/09/13 10:49:56;;;;;;;7.53;4.90;;;18.20;99.90;;;;;;5099247;28;20880;-69
2022/09/13 10:52:31;;;;;;;6.23;5.33;;;18.10;99.90;;;;;;5099055;28;20486;-70
2022/09/13 10:55:35;;;;;;;7.37;5.27;;;18.20;99.90;;;;;;5103025;28;20451;-70
2022/09/13 10:58:25;;;;;;;6.77;5.13;;;18.20;99.90;;;;;;5107885;28;20822;-69
2022/09/13 11:01:27;;;;;;;5.50;4.90;;;18.20;99.90;;;;;;5100992;28;20437;-69
2022/09/13 11:04:41;;;;;;;6.40;5.50;;;18.10;99.90;;;;;;5100575;28;20462;-69
2022/09/13 11:07:46;;;;;;;6.90;5.57;;;18.10;99.90;;;;;;5079477;28;20731;-69
2022/09/13 11:10:22;;;;;;;6.30;5.27;;;18.10;99.90;;;;;;5095607;28;20436;-69
2022/09/13 11:13:03;;;;;;;6.37;5.00;;;18.10;99.90;;;;;;5102091;28;20468;-70
2022/09/13 11:15:48;;;;;;;6.37;4.77;;;18.10;99.90;;;;;;5106274;28;20503;-69
2022/09/13 11:18:38;;;;;;;6.43;5.40;;;18.10;99.90;;;;;;5112025;28;20547;-70
2022/09/13 11:21:23;;;;;;;8.30;4.83;;;18.00;99.90;;;;;;5111410;28;20553;-70
2022/09/13 11:24:13;;;;;;;6.00;5.40;;;18.00;99.90;;;;;;5105871;28;20458;-70
2022/09/13 11:26:53;;;;;;;6.03;4.80;;;18.00;99.90;;;;;;5109031;28;20466;-70
2022/09/13 11:29:40;;;;;;;7.87;5.20;;;18.00;99.90;;;;;;5104965;28;20484;-70
2022/09/13 11:32:27;;;;;;;7.10;5.60;;;18.00;99.90;;;;;;5108541;28;20490;-70
2022/09/13 11:35:19;;;;;;;5.57;5.07;;;18.00;99.90;;;;;;5109468;28;20492;-70
2022/09/13 11:37:58;;;;;;;6.67;6.00;;;18.00;99.90;;;;;;5111548;28;20497;-70
2022/09/13 11:40:43;;;;;;;8.13;5.97;;;18.00;99.90;;;;;;5104438;28;20563;-70
2022/09/13 11:43:39;;;;;;;6.90;4.87;;;18.00;99.90;;;;;;5104096;28;20480;-70
2022/09/13 11:46:20;;;;;;;5.77;4.70;;;18.00;99.90;;;;;;5112536;28;20458;-70
2022/09/13 11:49:20;;;;;;;7.07;6.10;;;18.00;99.90;;;;;;5105395;28;20439;-70
2022/09/13 11:51:59;;;;;;;4.63;3.80;;;18.00;99.90;;;;;;5121144;28;20517;-70
2022/09/13 11:54:54;;;;;;;6.80;5.17;;;18.10;99.90;;;;;;5109918;28;20421;-70
2022/09/13 11:57:32;;;;;;;6.90;5.27;;;18.00;99.90;;;;;;5115708;28;20450;-70
2022/09/13 12:00:06;;;;;;;7.50;4.83;;;18.00;99.90;;;;;;5119178;28;20896;-70
2022/09/13 12:02:44;;;;;;;7.80;4.60;;;18.00;99.90;;;;;;5124508;28;20454;-70
2022/09/13 12:05:21;;;;;;;6.17;5.57;;;18.00;99.90;;;;;;5124405;27;20807;-69
2022/09/13 12:07:58;;;;;;;5.77;5.07;;;17.90;99.90;;;;;;5116076;28;20420;-70
2022/09/13 12:10:34;;;;;;;7.60;5.20;;;17.90;99.90;;;;;;5110989;28;20446;-69
2022/09/13 12:13:11;;;;;;;8.10;5.40;;;17.80;99.90;;;;;;5105255;28;20560;-69
2022/09/13 12:15:44;;;;;;;7.33;5.83;;;17.80;99.90;;;;;;5106405;28;20822;-69
2022/09/13 12:18:19;;;;;;;6.40;5.73;;;17.90;99.90;;;;;;5105013;28;20540;-69
2022/09/13 12:20:54;;;;;;;7.10;5.50;;;17.90;99.90;;;;;;5100326;28;20433;-69
2022/09/13 12:23:32;;;;;;;7.87;5.67;;;17.90;99.90;;;;;;5104911;28;20464;-70
2022/09/13 12:26:07;;;;;;;7.13;5.60;;;18.00;99.90;;;;;;5112232;28;20458;-69
2022/09/13 12:28:45;;;;;;;7.17;5.70;;;17.90;99.90;;;;;;5114154;28;20454;-69
2022/09/13 12:31:19;;;;;;;5.93;5.33;;;17.80;99.90;;;;;;5102632;28;20492;-69
2022/09/13 12:33:50;;;;;;;8.27;5.80;;;17.90;99.90;;;;;;5103527;28;20494;-69
2022/09/13 12:36:41;;;;;;;8.67;6.30;;;17.80;99.90;;;;;;5103405;28;20812;-70
2022/09/13 12:39:55;;;;;;;5.73;5.17;;;17.80;99.90;;;;;;5110957;28;20465;-69
2022/09/13 12:42:58;;;;;;;7.83;5.27;;;17.80;99.90;;;;;;5090466;28;20518;-70
2022/09/13 12:45:42;;;;;;;6.90;5.13;;;17.70;99.90;;;;;;5099566;28;20436;-70
2022/09/13 12:48:27;;;;;;;6.60;5.77;;;17.70;99.90;;;;;;5106976;28;20497;-70
2022/09/13 12:51:08;;;;;;;5.83;4.93;;;17.70;99.90;;;;;;5107936;28;20495;-71
2022/09/13 12:54:18;;;;;;;7.23;6.40;;;17.70;99.90;;;;;;5108099;28;21066;-69
2022/09/13 12:57:08;;;;;;;6.00;5.40;;;17.70;99.90;;;;;;5099118;28;20470;-70
2022/09/13 13:00:03;;;;;;;7.17;5.67;;;17.70;99.90;;;;;;5108122;28;20508;-69
2022/09/13 13:02:38;;;;;;;6.33;5.67;;;17.80;99.90;;;;;;5100584;28;20470;-69
2022/09/13 13:05:22;;;;;;;6.30;5.00;;;17.80;99.90;;;;;;5098998;28;20669;-70
2022/09/13 13:07:55;;;;;;;9.57;5.80;;;17.80;99.90;;;;;;5105511;28;21041;-70
2022/09/13 13:10:30;;;;;;;8.50;4.93;;;17.80;99.90;;;;;;5119747;28;20428;-70
2022/09/13 13:13:15;;;;;;;6.00;4.60;;;17.70;99.90;;;;;;5103311;28;20535;-70
2022/09/13 13:16:03;;;;;;;7.23;5.23;;;17.70;99.90;;;;;;5111787;28;20442;-69
2022/09/13 13:18:47;;;;;;;7.60;5.53;;;17.70;99.90;;;;;;5118075;28;20524;-70
2022/09/13 13:21:37;;;;;;;6.20;5.10;;;17.70;99.90;;;;;;5087049;28;20484;-70
2022/09/13 13:24:46;;;;;;;7.90;5.70;;;17.70;99.90;;;;;;5102980;28;20542;-68
2022/09/13 13:27:44;;;;;;;6.70;5.10;;;17.70;99.90;;;;;;5098956;28;20936;-70
2022/09/13 13:30:43;;;;;;;7.57;5.07;;;17.70;99.90;;;;;;5120046;27;20461;-70
2022/09/13 13:33:22;;;;;;;6.50;4.63;;;17.70;99.90;;;;;;5108230;28;20530;-69